関西国際空港の過去48時間の天気

関西国際空港 (Kansai intl)

現在時刻: 4/22 22:06 JST (4/22 13:06 UTC) 以下の時間は現地時間です。

過去48時間のMETAR気象情報
時間 風向 風速(m/s) 視程 気温(℃) 湿度(%) 気圧(hPa) 天気現象
22 21:30 北東 7 10km以上 18 64 1016
22 21:00 東北東 7 10km以上 18 64 1016
22 20:30 北東 7 10km以上 19 60 1016
22 20:00 北北東 7 10km以上 20 56 1015
22 19:30 北北東 4 10km以上 20 56 1014
22 19:00 5 10km以上 22 50 1014
22 18:30 北北東 3 10km以上 22 53 1014
22 18:00 3 10km以上 22 57 1013
22 17:30 北北西 4 10km以上 22 57 1013
22 17:00 北西 4 10km以上 23 53 1013
22 16:30 西北西 2 10km以上 24 44 1013
22 16:00 西北西 2 10km以上 24 50 1013
22 15:30 西 3 10km以上 24 50 1013
22 15:00 西 3 10km以上 24 50 1013
22 14:30 西 3 10km以上 24 54 1013
22 14:00 西 2 10km以上 21 73 1013
22 13:30 西北西 2 10km以上 20 78 1013
22 13:00 西 2 10km以上 21 69 1014
22 12:30 西 3 10km以上 22 69 1014
22 12:00 西 2 8000m 20 78 1014
22 11:30 西 2 8000m 21 69 1014
22 11:00 西 3 8000m 21 73 1015
22 10:30 西 2 7000m 20 83 1015
22 10:00 西 2 7000m 18 83 1015
22 09:30 西 2 6000m 19 78 1015 もや
22 09:16 西 2 6000m 18 77 1015 もや
22 09:00 西 2 4500m 18 77 1015 もや
22 08:30 不定 1 6000m 17 83 1015
22 08:00 北北西 4 6000m 17 83 1014
22 07:30 北北西 5 6000m 17 83 1014
22 07:00 北北西 4 6000m 17 88 1014
22 06:30 北北西 3 6000m 17 88 1013
22 06:00 北西 2 6000m 17 94 1013
22 05:30 西 3 3800m 17 94 1013 もや
22 05:18 2 5000m 17 94 1013 もや
22 05:08 南南東 2 4400m 17 94 1013 もや
22 04:30 不定 1 6000m 17 100 1012
22 04:06 西 1 6000m 17 94 1012
22 04:00 西北西 1 4600m 17 94 1012 もや
22 03:39 南西 2 5000m 17 94 1012 もや
22 03:30 南南西 2 5000m 18 94 1012 もや
22 03:00 2 7000m 18 88 1012
22 02:30 南南東 2 6000m 19 83 1012
22 02:28 南南東 2 7000m 19 83 1012
22 02:00 南南東 2 6000m 19 88 1012
22 01:30 不定 1 8000m 18 94 1012
22 01:00 不定 1 7000m 18 88 1012
22 00:30 不定 1 7000m 18 88 1012
22 00:00 北北東 3 7000m 17 94 1013
21 23:30 南西 2 8000m 16 100 1012
21 23:00 2 9000m 19 83 1012
21 22:30 西南西 2 10km以上 19 83 1012
21 22:00 南西 4 10km以上 18 88 1012
21 21:30 南南西 6 10km以上 19 83 1012
21 21:00 7 10km以上 18 88 1012
21 20:30 5 10km以上 18 83 1012
21 20:00 西南西 4 10km以上 19 83 1011
21 19:30 西南西 4 8000m 19 83 1011
21 19:00 南西 6 8000m 18 94 1011
21 18:30 南西 7 10km以上 18 88 1011
21 18:00 西南西 6 10km以上 19 88 1011
21 17:30 西南西 7 10km以上 20 83 1011
21 17:00 西南西 8 10km以上 20 83 1011
21 16:30 西南西 7 10km以上 21 78 1011
21 16:00 西南西 7 10km以上 21 78 1010
21 15:30 西南西 7 10km以上 21 78 1010
21 15:00 西南西 6 10km以上 22 73 1010
21 14:30 西南西 6 10km以上 22 73 1011
21 14:00 西南西 8 10km以上 22 73 1011
21 13:30 西南西 7 10km以上 22 73 1011
21 13:00 西 4 10km以上 22 69 1011
21 12:30 西 2 10km以上 22 65 1011
21 12:00 西北西 2 10km以上 21 69 1012
21 11:30 北西 2 9000m 20 73 1012
21 11:00 北西 2 9000m 20 73 1013
21 10:30 北北西 2 9000m 20 68 1013
21 10:00 2 10km以上 20 68 1013
21 09:30 4 10km以上 20 68 1013
21 09:00 3 10km以上 19 73 1013
21 08:30 東南東 3 10km以上 18 73 1014
21 08:00 東南東 3 10km以上 16 88 1014
21 07:30 3 10km以上 16 82 1014
21 07:00 3 10km以上 16 82 1014
21 06:30 3 10km以上 15 88 1014
21 06:00 3 10km以上 15 82 1013
21 05:30 3 8000m 15 82 1013
21 05:00 3 9000m 15 82 1013
21 04:30 3 10km以上 14 82 1013
RJBB 221230Z 05013KT CAVOK 18/11 Q1016 NOSIG
RJBB 221200Z 06014KT 9999 FEW035 18/11 Q1016 NOSIG
RJBB 221130Z 05013KT 9999 FEW035 19/11 Q1016 NOSIG
RJBB 221100Z 03014KT 9999 FEW035 20/11 Q1015 NOSIG
RJBB 221030Z 02008KT 9999 FEW035 20/11 Q1014 NOSIG
RJBB 221000Z 01010KT 9999 FEW035 22/11 Q1014 NOSIG
RJBB 220930Z 02005KT 9999 FEW035 22/12 Q1014 NOSIG
RJBB 220900Z 35006KT CAVOK 22/13 Q1013 NOSIG
RJBB 220830Z 34008KT CAVOK 22/13 Q1013 NOSIG
RJBB 220800Z 32007KT CAVOK 23/13 Q1013 BECMG 02014KT
RJBB 220730Z 29004KT CAVOK 24/11 Q1013 BECMG 01006KT
RJBB 220700Z 29004KT CAVOK 24/13 Q1013 BECMG 01006KT
RJBB 220630Z 26005KT CAVOK 24/13 Q1013 BECMG 01006KT
RJBB 220600Z 26006KT CAVOK 24/13 Q1013 BECMG 01006KT
RJBB 220530Z 26005KT CAVOK 24/14 Q1013 NOSIG
RJBB 220500Z 27004KT 9999 FEW025 SCT/// 21/16 Q1013 NOSIG
RJBB 220430Z 29003KT 9999 FEW025 BKN/// 20/16 Q1013 NOSIG
RJBB 220400Z 28003KT 260V320 9999 FEW025 BKN/// 21/15 Q1014 NOSIG
RJBB 220330Z 28005KT 9999 FEW025 SCT/// 22/16 Q1014 NOSIG
RJBB 220300Z 27004KT 8000 FEW025 BKN/// 20/16 Q1014 NOSIG
RJBB 220230Z 28004KT 8000 NSC 21/15 Q1014 NOSIG
RJBB 220200Z 28005KT 8000 FEW040 BKN/// 21/16 Q1015 NOSIG
RJBB 220130Z 27004KT 7000 FEW020 BKN/// 20/17 Q1015 NOSIG
RJBB 220100Z 26004KT 7000 FEW020 BKN/// 18/15 Q1015 NOSIG
RJBB 220030Z 28003KT 6000 BR FEW015 BKN035 19/15 Q1015 NOSIG
RJBB 220016Z 27003KT 6000 BR FEW012 SCT015 BKN035 18/14 Q1015 RMK 1ST012 3CU015 6CU035 A2997
RJBB 220000Z 28003KT 4500 BR FEW008 SCT012 BKN015 18/14 Q1015 BECMG 34005KT 7000 NSW
RJBB 212330Z VRB02KT 6000 FEW008 SCT012 BKN015 17/14 Q1015 NOSIG
RJBB 212300Z 34007KT 6000 FEW008 SCT012 BKN015 17/14 Q1014 NOSIG
RJBB 212230Z 33009KT 6000 FEW008 SCT015 BKN020 17/14 Q1014 NOSIG
RJBB 212200Z 34008KT 6000 FEW008 SCT015 BKN020 17/15 Q1014 NOSIG
RJBB 212130Z 34006KT 6000 FEW006 BKN/// 17/15 Q1013 NOSIG
RJBB 212100Z 32004KT 6000 FEW006 SCT015 BKN/// 17/16 Q1013 BECMG 05005KT
RJBB 212030Z AUTO 28005KT 150V320 3800 BR SCT010 BKN014 OVC190 17/16 Q1013 BECMG 05005KT
RJBB 212018Z AUTO 17003KT 5000 BR FEW010 BKN014 BKN200 17/16 Q1013 RMK A2991
RJBB 212008Z AUTO 16004KT 4400 BR SCT015 BKN200 BKN210 17/16 Q1013 RMK A2991
RJBB 211930Z AUTO VRB02KT 6000 FEW009 SCT021 17/17 Q1012 NOSIG
RJBB 211906Z AUTO 27002KT 6000 FEW009 BKN015 BKN019 17/16 Q1012 RMK A2990
RJBB 211900Z AUTO 29002KT 4600 BR FEW009 BKN015 BKN023 17/16 Q1012 TEMPO FEW008 BKN013 BKN020
RJBB 211839Z AUTO 22004KT 5000 BR SCT011 BKN015 17/16 Q1012 RMK A2991
RJBB 211830Z AUTO 21003KT 5000 BR BKN011 BKN015 OVC021 18/17 Q1012 TEMPO 4000 BR
RJBB 211800Z AUTO 18004KT 7000 OVC011 18/16 Q1012 TEMPO 4000 BR
RJBB 211730Z AUTO 15003KT 6000 BKN012 OVC017 19/16 Q1012 TEMPO 4000 BR
RJBB 211728Z AUTO 15003KT 7000 BKN012 OVC017 19/16 Q1012 RMK A2990
RJBB 211700Z AUTO 16003KT 6000 BKN016 OVC022 19/17 Q1012 TEMPO 4000 BR FEW008 BKN013 BKN020
RJBB 211630Z AUTO VRB01KT 8000 FEW014 BKN017 BKN020 18/17 Q1012 TEMPO 4000 BR
RJBB 211600Z AUTO VRB01KT 7000 FEW020 BKN050 18/16 Q1012 TEMPO 4000 BR
RJBB 211530Z AUTO VRB02KT 7000 FEW019 SCT023 BKN050 18/16 Q1012 TEMPO 4000 BR
RJBB 211500Z AUTO 02005KT 7000 FEW021 SCT050 17/16 Q1013 NOSIG
RJBB 211430Z AUTO 23003KT 200V280 8000 FEW021 16/16 Q1012 NOSIG
RJBB 211400Z AUTO 19004KT 9000 NSC 19/16 Q1012 NOSIG
RJBB 211330Z 25004KT 210V340 9999 FEW030 SCT/// 19/16 Q1012 NOSIG
RJBB 211300Z 22007KT 9999 FEW030 18/16 Q1012 NOSIG
RJBB 211230Z 20011KT 9999 FEW030 19/16 Q1012 NOSIG
RJBB 211200Z 19013KT 9999 FEW030 18/16 Q1012 NOSIG
RJBB 211130Z 19010KT 9999 FEW030 18/15 Q1012 NOSIG
RJBB 211100Z 24008KT 9999 FEW030 SCT/// 19/16 Q1011 NOSIG
RJBB 211030Z 24008KT 8000 FEW030 SCT/// 19/16 Q1011 NOSIG
RJBB 211000Z 23011KT 8000 FEW030 BKN/// 18/17 Q1011 NOSIG
RJBB 210930Z 23013KT 9999 FEW030 BKN/// 18/16 Q1011 NOSIG
RJBB 210900Z 25011KT 9999 FEW030 BKN/// 19/17 Q1011 NOSIG
RJBB 210830Z 25013KT 9999 FEW030 BKN/// 20/17 Q1011 NOSIG
RJBB 210800Z 24016KT 9999 FEW030 BKN/// 20/17 Q1011 NOSIG
RJBB 210730Z 24014KT 9999 FEW030 SCT/// 21/17 Q1011 NOSIG
RJBB 210700Z 24013KT 9999 FEW030 21/17 Q1010 NOSIG
RJBB 210630Z 24014KT 9999 FEW030 21/17 Q1010 NOSIG
RJBB 210600Z 25011KT 9999 FEW030 22/17 Q1010 NOSIG
RJBB 210530Z 25012KT 9999 FEW030 22/17 Q1011 NOSIG
RJBB 210500Z 24016KT 9999 FEW030 22/17 Q1011 NOSIG
RJBB 210430Z 24013KT 9999 FEW030 22/17 Q1011 NOSIG
RJBB 210400Z 26008KT 9999 FEW030 22/16 Q1011 NOSIG
RJBB 210330Z 28004KT 9999 FEW030 22/15 Q1011 NOSIG
RJBB 210300Z 30003KT 260V320 9999 FEW030 21/15 Q1012 NOSIG
RJBB 210230Z 32004KT 9000 FEW030 20/15 Q1012 BECMG 25008KT
RJBB 210200Z 32003KT 9000 FEW030 20/15 Q1013 BECMG 25008KT
RJBB 210130Z 34004KT 300V360 9000 FEW025 20/14 Q1013 BECMG 25008KT
RJBB 210100Z 01004KT 9999 FEW025 20/14 Q1013 BECMG 25008KT
RJBB 210030Z 01008KT 9999 FEW025 20/14 Q1013 NOSIG
RJBB 210000Z 01006KT 9999 FEW050 19/14 Q1013 NOSIG
RJBB 202330Z 11005KT 9999 FEW050 18/13 Q1014 NOSIG
RJBB 202300Z 11006KT 9999 FEW030 BKN050 16/14 Q1014 NOSIG
RJBB 202230Z 09005KT 9999 FEW020 BKN050 16/13 Q1014 NOSIG
RJBB 202200Z 09006KT 9999 FEW020 BKN050 16/13 Q1014 NOSIG
RJBB 202130Z 10005KT 9999 FEW025 SCT060 15/13 Q1014 NOSIG
RJBB 202100Z 09005KT 9999 FEW020 SCT060 15/12 Q1013 NOSIG
RJBB 202030Z AUTO 08006KT 8000 SCT023 BKN050 15/12 Q1013 NOSIG
RJBB 202000Z AUTO 09006KT 9000 BKN022 15/12 Q1013 NOSIG
RJBB 201930Z AUTO 08006KT 9999 NCD 14/11 Q1013 NOSIG